createdAt,value
2023-05-02T00:02:22.144Z,72.47
2023-05-02T00:04:49.112Z,72.28
2023-05-02T00:07:16.055Z,72.50
2023-05-02T00:09:43.104Z,72.32
2023-05-02T00:12:10.038Z,72.30
2023-05-02T00:14:36.965Z,72.73
2023-05-02T00:17:04.093Z,72.34
2023-05-02T00:19:31.090Z,72.92
2023-05-02T00:21:58.139Z,72.80
2023-05-02T00:24:25.310Z,72.80
2023-05-02T00:26:52.437Z,72.77
2023-05-02T00:29:19.461Z,72.68
2023-05-02T00:31:47.599Z,72.93
2023-05-02T00:34:14.646Z,72.83
2023-05-02T00:36:42.183Z,73.81
2023-05-02T00:39:09.796Z,73.95
2023-05-02T00:41:36.916Z,73.65
2023-05-02T00:44:03.866Z,73.77
2023-05-02T00:46:31.451Z,73.64
2023-05-02T00:48:58.577Z,73.84
2023-05-02T00:51:27.468Z,73.85
2023-05-02T00:53:54.725Z,73.74
2023-05-02T00:56:21.852Z,74.80
2023-05-02T00:58:49.043Z,74.76
2023-05-02T01:01:28.224Z,74.63
2023-05-02T01:04:05.014Z,74.98
2023-05-02T01:06:59.824Z,74.76
2023-05-02T01:09:50.056Z,75.92
2023-05-02T01:13:01.566Z,75.53
2023-05-02T01:15:28.836Z,75.65
2023-05-02T01:17:57.205Z,75.72
2023-05-02T01:20:28.110Z,75.46
2023-05-02T01:23:00.608Z,75.32
2023-05-02T01:25:37.965Z,75.73
2023-05-02T01:28:28.664Z,75.83
2023-05-02T01:30:57.321Z,75.75
2023-05-02T01:33:27.177Z,75.38
2023-05-02T01:35:56.188Z,74.95
2023-05-02T01:38:25.572Z,75.44
2023-05-02T01:40:54.221Z,75.39
2023-05-02T01:43:22.182Z,76.09
2023-05-02T01:45:51.510Z,76.06
2023-05-02T01:48:19.905Z,75.83
2023-05-02T01:50:48.836Z,76.02
2023-05-02T01:53:16.701Z,76.35
2023-05-02T01:55:46.093Z,76.51
2023-05-02T01:58:15.702Z,75.73
2023-05-02T02:00:45.589Z,76.37
2023-05-02T02:03:14.354Z,76.65
2023-05-02T02:05:41.953Z,76.47
2023-05-02T02:08:09.166Z,76.52
2023-05-02T02:10:45.394Z,76.39
2023-05-02T02:13:25.968Z,76.55
2023-05-02T02:15:58.034Z,75.59
2023-05-02T02:18:27.909Z,75.88
2023-05-02T02:20:57.418Z,75.94
2023-05-02T02:23:27.380Z,75.81
2023-05-02T02:25:56.161Z,75.61
2023-05-02T02:28:23.246Z,76.28
2023-05-02T02:30:50.436Z,75.75
2023-05-02T02:33:18.165Z,75.88
2023-05-02T02:35:50.687Z,76.73
2023-05-02T02:38:23.600Z,76.39
2023-05-02T02:40:57.800Z,76.75
2023-05-02T02:43:24.679Z,76.94
2023-05-02T02:46:14.710Z,76.76
2023-05-02T02:49:14.172Z,77.21
2023-05-02T02:52:02.829Z,77.27
2023-05-02T02:54:35.936Z,76.77
2023-05-02T02:57:16.607Z,76.38
2023-05-02T02:59:55.378Z,77.12
2023-05-02T03:02:28.449Z,77.52
2023-05-02T03:04:57.410Z,78.66
2023-05-02T03:07:27.555Z,77.86
2023-05-02T03:09:54.903Z,77.90
2023-05-02T03:12:24.351Z,77.74
2023-05-02T03:14:51.852Z,77.93
2023-05-02T03:17:26.210Z,77.78
2023-05-02T03:19:53.668Z,78.55
2023-05-02T03:22:20.709Z,78.76
2023-05-02T03:24:49.477Z,78.30
2023-05-02T03:27:16.555Z,78.08
2023-05-02T03:29:43.543Z,78.38
2023-05-02T03:32:12.303Z,78.22
2023-05-02T03:34:41.883Z,78.64
2023-05-02T03:37:09.758Z,78.48
2023-05-02T03:39:36.766Z,78.37
2023-05-02T03:42:05.777Z,79.44
2023-05-02T03:44:33.085Z,79.29
2023-05-02T03:47:00.247Z,79.58
2023-05-02T03:49:28.056Z,80.02
2023-05-02T03:51:55.295Z,80.33
2023-05-02T03:54:27.445Z,80.55
2023-05-02T03:56:55.480Z,80.63
2023-05-02T03:59:28.365Z,80.40
2023-05-02T04:01:56.718Z,80.37
2023-05-02T04:04:32.984Z,81.04
2023-05-02T04:07:00.243Z,81.21
2023-05-02T04:09:27.418Z,80.98
2023-05-02T04:11:59.299Z,81.77
2023-05-02T04:14:26.252Z,81.90
2023-05-02T04:16:55.292Z,83.42
2023-05-02T04:19:31.454Z,82.16
2023-05-02T04:21:58.731Z,81.67
2023-05-02T04:24:25.843Z,81.90
2023-05-02T04:26:53.197Z,80.99
2023-05-02T04:29:20.321Z,80.67
2023-05-02T04:31:47.873Z,82.02
2023-05-02T04:34:15.326Z,82.33
2023-05-02T04:36:48.500Z,81.02
2023-05-02T04:39:28.301Z,81.15
2023-05-02T04:42:05.632Z,79.13
2023-05-02T04:44:38.044Z,79.82
2023-05-02T04:47:05.323Z,80.25
2023-05-02T04:49:32.624Z,80.76
2023-05-02T04:51:59.574Z,76.24
2023-05-02T04:54:26.960Z,74.45
2023-05-02T04:56:54.105Z,74.32
2023-05-02T04:59:23.948Z,75.31
2023-05-02T05:01:51.025Z,76.68
2023-05-02T05:04:18.593Z,76.37
2023-05-02T05:06:47.619Z,76.95
2023-05-02T05:09:15.316Z,76.07
2023-05-02T05:11:43.815Z,74.12
2023-05-02T05:14:10.984Z,73.41
2023-05-02T05:16:40.180Z,68.67
2023-05-02T05:19:07.430Z,71.88
2023-05-02T05:21:37.483Z,73.11
2023-05-02T05:24:06.442Z,70.94
2023-05-02T05:26:33.371Z,70.78
2023-05-02T05:29:00.370Z,70.86
2023-05-02T05:31:32.683Z,73.34
2023-05-02T05:34:02.532Z,68.87
2023-05-02T05:36:31.552Z,67.91
2023-05-02T05:38:58.461Z,66.23
2023-05-02T05:41:25.459Z,65.23
2023-05-02T05:43:59.568Z,65.48
2023-05-02T05:46:27.837Z,67.22
2023-05-02T05:48:55.516Z,65.12
2023-05-02T05:51:22.697Z,63.50
2023-05-02T05:53:50.041Z,61.08
2023-05-02T05:56:18.350Z,61.76
2023-05-02T05:58:55.172Z,65.82
2023-05-02T06:01:22.230Z,61.68
2023-05-02T06:03:49.794Z,63.58
2023-05-02T06:06:18.403Z,63.57
2023-05-02T06:08:45.457Z,61.90
2023-05-02T06:11:12.606Z,62.72
2023-05-02T06:13:39.792Z,63.44
2023-05-02T06:16:08.249Z,63.14
2023-05-02T06:18:35.429Z,60.12
2023-05-02T06:21:06.546Z,62.83
2023-05-02T06:23:33.508Z,63.49
2023-05-02T06:26:01.814Z,61.83
2023-05-02T06:28:29.851Z,61.79
2023-05-02T06:31:01.618Z,58.56
2023-05-02T06:33:33.105Z,58.08
2023-05-02T06:36:01.627Z,60.59
2023-05-02T06:38:29.916Z,59.02
2023-05-02T06:40:56.954Z,57.16
2023-05-02T06:43:28.444Z,60.40
2023-05-02T06:45:56.521Z,61.03
2023-05-02T06:48:23.659Z,60.52
2023-05-02T06:50:52.331Z,64.89
2023-05-02T06:53:19.317Z,62.36
2023-05-02T06:55:47.046Z,60.28
2023-05-02T06:58:14.326Z,59.70
2023-05-02T07:00:43.772Z,59.80
2023-05-02T07:03:11.557Z,61.75
2023-05-02T07:05:38.599Z,57.45
2023-05-02T07:08:05.918Z,56.93
2023-05-02T07:10:33.095Z,59.88
2023-05-02T07:13:00.016Z,57.66
2023-05-02T07:15:27.595Z,58.98
2023-05-02T07:17:54.600Z,60.88
2023-05-02T07:20:21.622Z,59.29
2023-05-02T07:22:48.843Z,59.04
2023-05-02T07:25:15.990Z,59.90
2023-05-02T07:27:43.022Z,61.83
2023-05-02T07:30:10.233Z,58.69
2023-05-02T07:32:37.168Z,55.91
2023-05-02T07:35:04.325Z,57.18
2023-05-02T07:37:37.933Z,56.37
2023-05-02T07:40:05.512Z,52.33
2023-05-02T07:42:36.004Z,56.01
2023-05-02T07:45:03.173Z,57.72
2023-05-02T07:47:30.072Z,53.68
2023-05-02T07:49:57.161Z,57.65
2023-05-02T07:52:24.330Z,56.54
2023-05-02T07:54:51.964Z,57.09
2023-05-02T07:57:19.458Z,53.92
2023-05-02T07:59:46.546Z,55.00
2023-05-02T08:02:14.307Z,55.35
2023-05-02T08:04:41.489Z,52.76
2023-05-02T08:07:08.641Z,53.42
2023-05-02T08:09:35.817Z,53.97
2023-05-02T08:12:03.646Z,53.75
2023-05-02T08:14:32.742Z,53.66
2023-05-02T08:17:00.552Z,53.48
2023-05-02T08:19:28.059Z,51.81
2023-05-02T08:21:55.737Z,52.63
2023-05-02T08:24:22.939Z,52.51
2023-05-02T08:26:50.172Z,51.68
2023-05-02T08:29:17.488Z,54.08
2023-05-02T08:31:44.513Z,51.33
2023-05-02T08:34:11.581Z,51.88
2023-05-02T08:36:38.681Z,51.72
2023-05-02T08:39:08.199Z,49.91
2023-05-02T08:41:35.663Z,46.44
2023-05-02T08:44:04.139Z,47.31
2023-05-02T08:46:32.482Z,46.43
2023-05-02T08:49:00.682Z,49.88
2023-05-02T08:51:29.435Z,44.66
2023-05-02T08:53:58.590Z,43.56
2023-05-02T08:56:26.603Z,42.67
2023-05-02T08:58:53.605Z,45.94
2023-05-02T09:01:31.411Z,44.48
2023-05-02T09:03:59.974Z,43.78
2023-05-02T09:06:27.821Z,40.41
2023-05-02T09:08:55.300Z,41.42
2023-05-02T09:11:22.512Z,41.49
2023-05-02T09:13:52.161Z,42.71
2023-05-02T09:16:24.352Z,43.63
2023-05-02T09:18:58.964Z,42.55
2023-05-02T09:21:35.113Z,44.90
2023-05-02T09:24:04.032Z,44.22
2023-05-02T09:26:32.830Z,41.14
2023-05-02T09:29:02.215Z,42.34
2023-05-02T09:31:53.940Z,43.63
2023-05-02T09:34:22.641Z,41.87
2023-05-02T09:36:56.025Z,41.79
2023-05-02T09:39:29.285Z,40.60
2023-05-02T09:41:57.225Z,41.98
2023-05-02T09:44:26.705Z,40.20
2023-05-02T09:46:55.492Z,41.98
2023-05-02T09:49:44.864Z,38.45
2023-05-02T09:52:13.692Z,37.99
2023-05-02T09:54:40.894Z,40.48
2023-05-02T09:57:08.157Z,39.31
2023-05-02T09:59:35.161Z,40.27
2023-05-02T10:02:04.594Z,37.09
2023-05-02T10:04:33.859Z,37.36
2023-05-02T10:07:03.080Z,37.64
2023-05-02T10:09:32.842Z,38.30
2023-05-02T10:12:06.916Z,39.80
2023-05-02T10:14:41.807Z,39.77
2023-05-02T10:17:21.662Z,39.73
2023-05-02T10:20:00.661Z,42.79
2023-05-02T10:22:28.343Z,38.85
2023-05-02T10:24:58.263Z,41.93
2023-05-02T10:27:26.209Z,36.42
2023-05-02T10:29:54.695Z,35.94
2023-05-02T10:32:23.948Z,36.17
2023-05-02T10:34:53.027Z,37.19
2023-05-02T10:37:20.596Z,34.91
2023-05-02T10:39:47.556Z,38.70
2023-05-02T10:42:15.055Z,37.89
2023-05-02T10:44:42.067Z,36.98
2023-05-02T10:47:23.301Z,39.30
2023-05-02T10:49:56.851Z,36.63
2023-05-02T10:52:41.647Z,40.48
2023-05-02T10:55:22.395Z,41.76
2023-05-02T10:58:01.164Z,40.86
2023-05-02T11:00:30.731Z,39.94
2023-05-02T11:02:58.083Z,39.81
2023-05-02T11:05:26.428Z,35.51
2023-05-02T11:08:15.150Z,38.84
2023-05-02T11:10:42.362Z,39.36
2023-05-02T11:13:09.589Z,37.18
2023-05-02T11:15:42.363Z,37.25
2023-05-02T11:18:12.135Z,37.53
2023-05-02T11:20:44.158Z,37.04
2023-05-02T11:23:17.030Z,35.84
2023-05-02T11:25:46.503Z,41.35
2023-05-02T11:28:38.372Z,40.84
2023-05-02T11:31:06.970Z,38.21
2023-05-02T11:33:34.047Z,42.78
2023-05-02T11:36:01.379Z,39.77
2023-05-02T11:38:39.033Z,36.92
2023-05-02T11:41:06.230Z,38.68
2023-05-02T11:43:33.374Z,37.01
2023-05-02T11:46:02.316Z,39.03
2023-05-02T11:48:31.026Z,36.40
2023-05-02T11:51:02.522Z,36.77
2023-05-02T11:53:30.185Z,39.27
2023-05-02T11:56:02.421Z,39.57
2023-05-02T11:58:32.971Z,37.35
2023-05-02T12:01:13.535Z,39.14
2023-05-02T12:03:41.660Z,40.91
2023-05-02T12:06:18.632Z,37.68
2023-05-02T12:08:46.292Z,40.04
2023-05-02T12:11:16.129Z,39.33
2023-05-02T12:13:50.777Z,33.71
2023-05-02T12:16:19.173Z,40.73
2023-05-02T12:18:47.956Z,36.27
2023-05-02T12:21:19.383Z,34.78
2023-05-02T12:23:46.786Z,37.21
2023-05-02T12:26:21.907Z,39.14
2023-05-02T12:28:51.036Z,34.28
2023-05-02T12:31:18.223Z,31.46
2023-05-02T12:33:48.389Z,35.55
2023-05-02T12:36:15.854Z,36.07
2023-05-02T12:39:08.991Z,35.61
2023-05-02T12:41:37.916Z,32.52
2023-05-02T12:44:06.294Z,39.82
2023-05-02T12:46:33.574Z,34.52
2023-05-02T12:49:12.644Z,31.94
2023-05-02T12:51:40.905Z,34.10
2023-05-02T12:54:08.149Z,35.14
2023-05-02T12:56:43.753Z,33.32
2023-05-02T12:59:26.208Z,32.73
2023-05-02T13:01:53.213Z,33.48
2023-05-02T13:04:20.486Z,37.28
2023-05-02T13:06:47.522Z,34.15
2023-05-02T13:09:16.828Z,35.18
2023-05-02T13:11:44.081Z,30.82
2023-05-02T13:14:11.857Z,34.61
2023-05-02T13:16:38.932Z,32.36
2023-05-02T13:19:06.287Z,32.83
2023-05-02T13:21:33.293Z,32.15
2023-05-02T13:24:00.303Z,32.09
2023-05-02T13:26:27.239Z,32.18
2023-05-02T13:28:54.188Z,32.84
2023-05-02T13:31:21.394Z,34.12
2023-05-02T13:33:48.473Z,31.58
2023-05-02T13:36:15.386Z,32.84
2023-05-02T13:38:42.295Z,33.14
2023-05-02T13:41:09.299Z,34.25
2023-05-02T13:43:36.446Z,33.86
2023-05-02T13:46:03.544Z,31.87
2023-05-02T13:48:30.655Z,35.45
2023-05-02T13:50:57.638Z,35.52
2023-05-02T13:53:24.655Z,33.92
2023-05-02T13:55:51.595Z,35.18
2023-05-02T13:58:18.650Z,31.95
2023-05-02T14:00:45.702Z,33.51
2023-05-02T14:03:13.743Z,34.40
2023-05-02T14:05:43.863Z,33.68
2023-05-02T14:08:11.693Z,36.77
2023-05-02T14:10:39.127Z,32.33
2023-05-02T14:13:06.112Z,35.91
2023-05-02T14:15:33.175Z,33.75
2023-05-02T14:18:00.200Z,35.19
2023-05-02T14:20:27.298Z,33.43
2023-05-02T14:22:54.419Z,33.58
2023-05-02T14:25:21.493Z,32.99
2023-05-02T14:27:48.415Z,33.81
2023-05-02T14:30:15.577Z,32.54
2023-05-02T14:32:45.640Z,33.30
2023-05-02T14:35:14.599Z,33.46
2023-05-02T14:37:45.029Z,33.53
2023-05-02T14:40:12.702Z,34.88
2023-05-02T14:42:43.459Z,35.49
2023-05-02T14:45:11.199Z,34.08
2023-05-02T14:47:41.686Z,34.98
2023-05-02T14:50:10.287Z,35.82
2023-05-02T14:52:37.346Z,34.44
2023-05-02T14:55:04.844Z,32.81
2023-05-02T14:57:32.845Z,34.93
2023-05-02T15:00:00.088Z,33.54
2023-05-02T15:02:27.330Z,33.80
2023-05-02T15:04:54.551Z,33.64
2023-05-02T15:07:22.048Z,33.46
2023-05-02T15:09:49.370Z,33.66
2023-05-02T15:12:16.348Z,33.76
2023-05-02T15:14:43.475Z,34.56
2023-05-02T15:17:10.476Z,34.19
2023-05-02T15:19:40.677Z,34.80
2023-05-02T15:22:10.594Z,34.91
2023-05-02T15:24:37.854Z,34.34
2023-05-02T15:27:04.881Z,35.26
2023-05-02T15:29:31.958Z,35.99
2023-05-02T15:31:59.148Z,34.46
2023-05-02T15:34:26.254Z,35.30
2023-05-02T15:36:53.829Z,36.59
2023-05-02T15:39:29.054Z,36.57
2023-05-02T15:41:57.132Z,35.40
2023-05-02T15:44:26.233Z,36.09
2023-05-02T15:46:53.353Z,36.12
2023-05-02T15:49:20.382Z,36.31
2023-05-02T15:52:12.972Z,36.88
2023-05-02T15:54:40.022Z,35.81
2023-05-02T15:57:07.681Z,36.85
2023-05-02T15:59:34.883Z,37.56
2023-05-02T16:02:02.009Z,36.28
2023-05-02T16:04:29.415Z,37.26
2023-05-02T16:06:56.663Z,37.35
2023-05-02T16:09:23.774Z,37.24
2023-05-02T16:11:51.390Z,38.81
2023-05-02T16:14:18.446Z,37.52
2023-05-02T16:16:45.648Z,38.16
2023-05-02T16:19:13.672Z,37.89
2023-05-02T16:21:44.975Z,38.31
2023-05-02T16:24:12.375Z,39.55
2023-05-02T16:26:39.491Z,38.26
2023-05-02T16:29:06.744Z,38.13
2023-05-02T16:31:33.889Z,38.99
2023-05-02T16:34:01.110Z,39.82
2023-05-02T16:36:29.253Z,39.95
2023-05-02T16:38:56.179Z,39.35
2023-05-02T16:41:23.383Z,38.67
2023-05-02T16:43:50.486Z,38.94
2023-05-02T16:46:18.128Z,39.20
2023-05-02T16:51:12.233Z,40.16
2023-05-02T16:53:39.223Z,40.08
2023-05-02T16:56:09.060Z,39.71
2023-05-02T16:58:36.138Z,40.01
2023-05-02T17:01:03.133Z,41.13
2023-05-02T17:03:30.276Z,39.77
2023-05-02T17:06:01.343Z,39.88
2023-05-02T17:08:28.960Z,39.91
2023-05-02T17:10:56.312Z,39.70
2023-05-02T17:13:23.645Z,40.84
2023-05-02T17:15:51.478Z,41.19
2023-05-02T17:18:18.826Z,40.47
2023-05-02T17:20:47.008Z,41.00
2023-05-02T17:23:14.691Z,41.65
2023-05-02T17:25:42.376Z,42.16
2023-05-02T17:28:09.518Z,42.02
2023-05-02T17:30:36.695Z,42.24
2023-05-02T17:33:03.880Z,42.40
2023-05-02T17:35:31.889Z,42.17
2023-05-02T17:37:58.880Z,42.48
2023-05-02T17:40:25.853Z,41.86
2023-05-02T17:42:52.778Z,42.90
2023-05-02T17:45:19.767Z,42.56
2023-05-02T17:47:46.945Z,43.29
2023-05-02T17:50:14.345Z,42.56
2023-05-02T17:52:41.604Z,42.76
2023-05-02T17:55:09.069Z,43.49
2023-05-02T17:57:36.353Z,43.63
2023-05-02T18:00:04.878Z,44.51
2023-05-02T18:02:34.724Z,44.02
2023-05-02T18:05:04.052Z,43.84
2023-05-02T18:07:31.903Z,44.09
2023-05-02T18:10:02.399Z,44.41
2023-05-02T18:12:29.692Z,45.02
2023-05-02T18:14:56.711Z,44.31
2023-05-02T18:17:24.383Z,45.13
2023-05-02T18:19:51.484Z,44.97
2023-05-02T18:22:21.365Z,44.62
2023-05-02T18:24:49.931Z,45.25
2023-05-02T18:27:17.837Z,45.26
2023-05-02T18:29:44.904Z,44.61
2023-05-02T18:32:11.978Z,45.51
2023-05-02T18:34:39.245Z,45.47
2023-05-02T18:37:07.204Z,45.97
2023-05-02T18:39:34.701Z,45.95
2023-05-02T18:42:05.169Z,46.31
2023-05-02T18:44:32.326Z,45.95
2023-05-02T18:47:01.221Z,46.53
2023-05-02T18:49:28.229Z,46.44
2023-05-02T18:51:55.201Z,46.48
2023-05-02T18:54:23.593Z,47.21
2023-05-02T18:56:50.662Z,47.32
2023-05-02T18:59:19.065Z,47.76
2023-05-02T19:01:49.546Z,47.61
2023-05-02T19:04:16.748Z,47.13
2023-05-02T19:06:43.862Z,46.87
2023-05-02T19:09:13.357Z,47.50
2023-05-02T19:11:40.776Z,47.66
2023-05-02T19:14:08.112Z,48.01
2023-05-02T19:16:36.137Z,48.67
2023-05-02T19:19:03.796Z,47.77
2023-05-02T19:21:31.621Z,47.68
2023-05-02T19:23:58.663Z,47.57
2023-05-02T19:26:25.829Z,47.52
2023-05-02T19:28:52.754Z,47.45
2023-05-02T19:31:20.969Z,46.71
2023-05-02T19:33:55.029Z,46.76
2023-05-02T19:36:24.284Z,47.85
2023-05-02T19:38:52.276Z,47.52
2023-05-02T19:41:19.988Z,48.10
2023-05-02T19:43:47.178Z,47.08
2023-05-02T19:46:15.096Z,48.83
2023-05-02T19:48:42.225Z,48.97
2023-05-02T19:51:09.658Z,49.00
2023-05-02T19:53:45.380Z,48.72
2023-05-02T19:56:12.428Z,48.83
2023-05-02T19:58:39.541Z,48.42
2023-05-02T20:01:06.687Z,48.63
2023-05-02T20:03:35.303Z,48.38
2023-05-02T20:06:02.486Z,48.87
2023-05-02T20:08:31.555Z,49.94
2023-05-02T20:10:58.688Z,49.35
2023-05-02T20:13:25.794Z,51.26
2023-05-02T20:15:53.692Z,51.05
2023-05-02T20:18:21.271Z,50.98
2023-05-02T20:20:48.312Z,50.76
2023-05-02T20:23:16.132Z,51.64
2023-05-02T20:25:44.031Z,50.67
2023-05-02T20:28:11.192Z,51.20
2023-05-02T20:30:39.999Z,51.24
2023-05-02T20:33:15.599Z,51.90
2023-05-02T20:35:44.775Z,51.80
2023-05-02T20:38:12.520Z,51.67
2023-05-02T20:40:40.943Z,51.54
2023-05-02T20:43:09.026Z,50.32
2023-05-02T20:45:36.220Z,49.27
2023-05-02T20:48:03.347Z,48.66
2023-05-02T20:50:30.651Z,49.15
2023-05-02T20:52:58.766Z,50.78
2023-05-02T20:55:26.038Z,51.68
2023-05-02T20:57:53.833Z,51.05
2023-05-02T21:00:24.446Z,51.29
2023-05-02T21:02:51.545Z,51.12
2023-05-02T21:05:18.738Z,51.39
2023-05-02T21:07:45.747Z,50.04
2023-05-02T21:10:12.893Z,50.17
2023-05-02T21:12:40.209Z,48.96
2023-05-02T21:15:08.217Z,50.51
2023-05-02T21:17:35.716Z,50.34
2023-05-02T21:20:03.220Z,51.50
2023-05-02T21:22:30.538Z,52.38
2023-05-02T21:24:57.631Z,52.08
2023-05-02T21:27:24.816Z,49.63
2023-05-02T21:29:52.056Z,50.68
2023-05-02T21:32:19.203Z,51.75
2023-05-02T21:34:46.434Z,49.28
2023-05-02T21:37:13.393Z,50.55
2023-05-02T21:39:40.452Z,52.04
2023-05-02T21:42:07.564Z,49.79
2023-05-02T21:44:34.650Z,49.47
2023-05-02T21:47:01.626Z,51.05
2023-05-02T21:49:31.539Z,49.78
2023-05-02T21:51:58.993Z,51.15
2023-05-02T21:54:26.040Z,50.93
2023-05-02T21:56:55.810Z,49.58
2023-05-02T21:59:22.802Z,48.49
2023-05-02T22:01:49.949Z,48.39
2023-05-02T22:04:18.388Z,48.26
2023-05-02T22:06:52.101Z,48.38
2023-05-02T22:09:21.161Z,48.60
2023-05-02T22:11:48.117Z,50.38
2023-05-02T22:14:15.271Z,52.36
2023-05-02T22:16:42.255Z,53.06
2023-05-02T22:19:11.659Z,53.58
2023-05-02T22:21:38.549Z,54.40
2023-05-02T22:24:06.031Z,54.08
2023-05-02T22:26:33.142Z,54.87
2023-05-02T22:29:00.256Z,54.98
2023-05-02T22:31:27.415Z,54.94
2023-05-02T22:33:54.428Z,55.11
2023-05-02T22:36:21.536Z,55.29
2023-05-02T22:38:48.538Z,55.03
2023-05-02T22:41:15.544Z,55.43
2023-05-02T22:43:42.561Z,55.69
2023-05-02T22:46:09.550Z,55.92
2023-05-02T22:48:36.726Z,55.56
2023-05-02T22:51:03.887Z,55.12
2023-05-02T22:53:31.513Z,54.93
2023-05-02T22:55:58.572Z,55.20
2023-05-02T22:58:25.641Z,54.37
2023-05-02T23:00:52.605Z,53.03
2023-05-02T23:03:19.699Z,50.42
2023-05-02T23:05:46.761Z,49.96
2023-05-02T23:08:13.787Z,50.61
2023-05-02T23:10:40.997Z,51.57
2023-05-02T23:13:08.114Z,49.88
2023-05-02T23:15:35.250Z,51.42
2023-05-02T23:18:02.454Z,52.93
2023-05-02T23:20:29.486Z,52.32
2023-05-02T23:22:56.474Z,52.90
2023-05-02T23:25:25.920Z,56.85
2023-05-02T23:27:53.266Z,54.48
2023-05-02T23:30:20.242Z,54.65
2023-05-02T23:32:47.398Z,57.77
2023-05-02T23:35:14.636Z,55.85
2023-05-02T23:37:42.068Z,56.95
2023-05-02T23:40:09.495Z,56.36
2023-05-02T23:42:40.505Z,58.56
2023-05-02T23:45:11.209Z,58.37
2023-05-02T23:47:38.729Z,56.51
2023-05-02T23:50:06.217Z,57.02
2023-05-02T23:52:35.927Z,54.50
2023-05-02T23:55:03.284Z,56.62
2023-05-02T23:57:30.932Z,55.65
2023-05-02T23:59:58.008Z,54.72
